Talcahuano, Chile
Current Conditions -  °F | °C
As of 7:00 AM on Friday 31 Oct 2014 (Local Time) from SCIE Reporting Station
Clear Clear  
Wind Chill: 44°   Ceiling: Unl
Heat Index: 46°   Visibility: 6mi
Dew Point: 37°   Wind: 5mph
Humidity: 71%   Direction: 150°SSE
Pressure: 30.18"   Gusts: NA
Location:  36.74°S, 73.13°W
Report Text: SCIE 311100Z 15004KT CAVOK 08/03 Q1022
Loading
Personal Weather Stations






























Interactive Weather Map
Tropical Storm Tracking
New forecast layout! Learn more

10-Day Weather Forecast

Advertisements
Track Severe Weather on mobile